createdAt,value
2022-08-16T00:00:22.290Z,18.80
2022-08-16T00:02:52.324Z,18.80
2022-08-16T00:05:22.389Z,18.80
2022-08-16T00:07:57.027Z,18.80
2022-08-16T00:10:26.540Z,18.80
2022-08-16T00:12:56.909Z,18.70
2022-08-16T00:15:51.759Z,18.70
2022-08-16T00:18:26.097Z,18.70
2022-08-16T00:20:58.237Z,18.80
2022-08-16T00:23:34.455Z,18.80
2022-08-16T00:26:35.905Z,18.80
2022-08-16T00:28:55.384Z,18.70
2022-08-16T00:31:24.256Z,18.70
2022-08-16T00:33:51.893Z,18.70
2022-08-16T00:36:20.982Z,18.70
2022-08-16T00:38:48.402Z,18.70
2022-08-16T00:41:17.112Z,18.60
2022-08-16T00:43:45.219Z,18.60
2022-08-16T00:46:34.365Z,18.60
2022-08-16T00:49:17.593Z,18.60
2022-08-16T00:51:47.914Z,18.60
2022-08-16T00:54:26.626Z,18.60
2022-08-16T00:57:00.071Z,18.60
2022-08-16T00:59:32.879Z,18.50
2022-08-16T01:02:30.795Z,18.40
2022-08-16T01:05:10.417Z,18.40
2022-08-16T01:07:51.165Z,18.40
2022-08-16T01:10:32.181Z,18.30
2022-08-16T01:13:23.345Z,18.30
2022-08-16T01:16:14.349Z,18.30
2022-08-16T01:18:53.602Z,18.20
2022-08-16T01:21:22.313Z,18.20
2022-08-16T01:24:01.386Z,18.20
2022-08-16T01:26:34.157Z,18.20
2022-08-16T01:29:09.878Z,18.10
2022-08-16T01:31:42.757Z,18.10
2022-08-16T01:34:24.876Z,18.10
2022-08-16T01:37:07.570Z,18.00
2022-08-16T01:39:37.378Z,18.00
2022-08-16T01:42:07.703Z,17.90
2022-08-16T01:44:40.775Z,17.90
2022-08-16T01:47:10.339Z,17.80
2022-08-16T01:49:43.676Z,17.70
2022-08-16T01:52:30.059Z,17.70
2022-08-16T01:55:24.992Z,17.70
2022-08-16T01:57:56.260Z,17.70
2022-08-16T02:00:29.274Z,17.60
2022-08-16T02:03:00.249Z,17.60
2022-08-16T02:05:30.755Z,17.60
2022-08-16T02:08:01.346Z,17.60
2022-08-16T02:10:29.543Z,17.60
2022-08-16T02:13:02.529Z,17.50
2022-08-16T02:15:38.713Z,17.50
2022-08-16T02:18:13.398Z,17.40
2022-08-16T02:20:49.768Z,17.50
2022-08-16T02:23:22.521Z,17.40
2022-08-16T02:25:51.859Z,17.40
2022-08-16T02:28:23.540Z,17.30
2022-08-16T02:30:52.839Z,17.30
2022-08-16T02:33:43.739Z,17.40
2022-08-16T02:36:47.198Z,17.30
2022-08-16T02:39:09.902Z,17.30
2022-08-16T02:41:39.752Z,17.20
2022-08-16T02:44:08.759Z,17.20
2022-08-16T02:46:37.478Z,17.10
2022-08-16T02:49:07.704Z,17.10
2022-08-16T02:51:38.013Z,17.10
2022-08-16T02:54:10.071Z,17.10
2022-08-16T02:56:38.018Z,17.20
2022-08-16T02:59:11.575Z,17.10
2022-08-16T03:01:43.301Z,17.10
2022-08-16T03:04:39.354Z,17.10
2022-08-16T03:07:11.670Z,17.00
2022-08-16T03:09:44.824Z,17.00
2022-08-16T03:12:16.279Z,17.00
2022-08-16T03:14:44.800Z,16.90
2022-08-16T03:17:13.655Z,17.00
2022-08-16T03:19:48.134Z,17.00
2022-08-16T03:22:29.001Z,17.00
2022-08-16T03:25:02.929Z,17.00
2022-08-16T03:27:33.546Z,17.00
2022-08-16T03:30:16.287Z,17.00
2022-08-16T03:32:51.520Z,17.20
2022-08-16T03:35:33.128Z,17.20
2022-08-16T03:38:32.839Z,17.20
2022-08-16T03:40:56.259Z,17.30
2022-08-16T03:43:51.470Z,17.30
2022-08-16T03:46:45.038Z,17.30
2022-08-16T03:49:06.306Z,17.30
2022-08-16T03:51:35.667Z,17.40
2022-08-16T03:54:12.594Z,17.40
2022-08-16T03:56:56.612Z,17.40
2022-08-16T03:59:25.793Z,17.40
2022-08-16T04:01:59.518Z,17.40
2022-08-16T04:04:33.886Z,17.40
2022-08-16T04:07:07.272Z,17.40
2022-08-16T04:09:38.063Z,17.50
2022-08-16T04:12:10.748Z,17.40
2022-08-16T04:14:46.628Z,17.40
2022-08-16T04:17:17.145Z,17.40
2022-08-16T04:19:46.764Z,17.40
2022-08-16T04:22:17.517Z,17.40
2022-08-16T04:24:54.044Z,17.40
2022-08-16T04:27:24.557Z,17.50
2022-08-16T04:30:02.811Z,17.60
2022-08-16T04:32:33.602Z,17.70
2022-08-16T04:35:15.071Z,17.90
2022-08-16T04:37:46.010Z,17.90
2022-08-16T04:40:25.419Z,18.00
2022-08-16T04:42:55.277Z,18.00
2022-08-16T04:45:36.320Z,18.00
2022-08-16T04:48:10.179Z,18.10
2022-08-16T04:50:49.145Z,18.00
2022-08-16T04:53:19.920Z,18.00
2022-08-16T04:55:53.299Z,17.90
2022-08-16T04:58:45.043Z,17.90
2022-08-16T05:01:12.889Z,17.90
2022-08-16T05:03:59.534Z,17.90
2022-08-16T05:06:42.036Z,17.90
2022-08-16T05:09:24.715Z,18.00
2022-08-16T05:11:57.401Z,18.00
2022-08-16T05:14:45.148Z,18.10
2022-08-16T05:17:14.586Z,18.10
2022-08-16T05:19:46.765Z,18.30
2022-08-16T05:22:28.328Z,18.40
2022-08-16T05:25:00.589Z,18.50
2022-08-16T05:27:28.588Z,18.70
2022-08-16T05:30:00.907Z,18.80
2022-08-16T05:32:45.590Z,18.90
2022-08-16T05:35:16.659Z,19.00
2022-08-16T05:38:32.681Z,19.10
2022-08-16T05:41:02.204Z,19.20
2022-08-16T05:43:43.153Z,19.40
2022-08-16T05:46:30.423Z,19.40
2022-08-16T05:49:06.567Z,19.40
2022-08-16T05:51:41.476Z,19.60
2022-08-16T05:54:13.984Z,19.60
2022-08-16T05:56:42.946Z,19.60
2022-08-16T05:59:11.089Z,19.60
2022-08-16T06:01:40.174Z,19.70
2022-08-16T06:04:13.749Z,19.80
2022-08-16T06:06:57.614Z,19.90
2022-08-16T06:09:43.017Z,20.10
2022-08-16T06:12:26.931Z,20.30
2022-08-16T06:15:07.571Z,20.40
2022-08-16T06:17:42.555Z,20.50
2022-08-16T06:20:23.553Z,20.60
2022-08-16T06:22:57.420Z,20.90
2022-08-16T06:25:36.258Z,21.20
2022-08-16T06:28:09.598Z,21.50
2022-08-16T06:30:43.870Z,21.90
2022-08-16T06:33:40.322Z,22.20
2022-08-16T06:36:11.771Z,22.40
2022-08-16T06:38:55.486Z,22.70
2022-08-16T06:41:40.111Z,22.80
2022-08-16T06:44:20.838Z,22.90
2022-08-16T06:46:50.913Z,22.90
2022-08-16T06:49:20.764Z,23.00
2022-08-16T06:51:48.896Z,23.00
2022-08-16T06:54:21.714Z,23.10
2022-08-16T06:56:52.456Z,23.20
2022-08-16T06:59:25.568Z,23.20
2022-08-16T07:01:58.825Z,23.40
2022-08-16T07:04:32.932Z,23.60
2022-08-16T07:07:14.711Z,23.90
2022-08-16T07:09:43.027Z,24.00
2022-08-16T07:12:10.530Z,24.20
2022-08-16T07:14:42.405Z,24.30
2022-08-16T07:17:13.570Z,24.60
2022-08-16T07:20:02.581Z,24.70
2022-08-16T07:22:42.464Z,24.80
2022-08-16T07:25:24.643Z,24.70
2022-08-16T07:27:53.511Z,25.00
2022-08-16T07:30:39.293Z,25.10
2022-08-16T07:33:48.118Z,25.20
2022-08-16T07:36:07.213Z,25.30
2022-08-16T07:38:37.290Z,25.50
2022-08-16T07:41:09.708Z,25.90
2022-08-16T07:43:41.616Z,26.50
2022-08-16T07:46:39.515Z,27.00
2022-08-16T07:49:02.618Z,27.40
2022-08-16T07:51:37.233Z,27.70
2022-08-16T07:54:09.715Z,28.00
2022-08-16T07:56:43.535Z,28.40
2022-08-16T07:59:11.301Z,28.50
2022-08-16T08:01:40.153Z,28.70
2022-08-16T08:04:13.366Z,28.40
2022-08-16T08:06:44.655Z,28.80
2022-08-16T08:09:16.304Z,29.30
2022-08-16T08:11:59.589Z,29.20
2022-08-16T08:14:29.931Z,29.30
2022-08-16T08:17:01.402Z,28.90
2022-08-16T08:19:30.868Z,29.00
2022-08-16T08:22:02.075Z,28.90
2022-08-16T08:24:38.884Z,28.50
2022-08-16T08:27:22.424Z,28.80
2022-08-16T08:30:50.571Z,29.20
2022-08-16T08:32:58.776Z,29.20
2022-08-16T08:35:31.917Z,30.00
2022-08-16T08:38:01.729Z,29.60
2022-08-16T08:40:32.315Z,29.60
2022-08-16T08:43:12.061Z,29.60
2022-08-16T08:45:52.927Z,29.50
2022-08-16T08:48:32.914Z,29.30
2022-08-16T08:51:09.049Z,29.40
2022-08-16T08:53:43.521Z,29.60
2022-08-16T08:56:23.103Z,30.20
2022-08-16T08:58:58.104Z,30.60
2022-08-16T09:01:42.671Z,31.00
2022-08-16T09:04:24.108Z,31.40
2022-08-16T09:06:53.580Z,31.10
2022-08-16T09:09:25.288Z,31.60
2022-08-16T09:12:06.113Z,31.90
2022-08-16T09:14:51.164Z,32.40
2022-08-16T09:17:45.385Z,33.50
2022-08-16T09:20:14.477Z,34.90
2022-08-16T09:22:51.322Z,36.10
2022-08-16T09:25:26.458Z,37.40
2022-08-16T09:28:09.432Z,37.80
2022-08-16T09:30:44.215Z,38.40
2022-08-16T09:33:20.467Z,37.10
2022-08-16T09:35:53.823Z,37.00
2022-08-16T09:38:32.245Z,39.30
2022-08-16T09:41:02.087Z,40.80
2022-08-16T09:43:59.879Z,41.20
2022-08-16T09:46:33.403Z,41.90
2022-08-16T09:49:08.470Z,40.30
2022-08-16T09:51:37.531Z,39.60
2022-08-16T09:54:32.384Z,40.70
2022-08-16T09:57:01.834Z,41.90
2022-08-16T09:59:38.500Z,42.80
2022-08-16T10:02:27.366Z,43.80
2022-08-16T10:04:56.091Z,42.00
2022-08-16T10:07:44.798Z,41.90
2022-08-16T10:10:18.624Z,41.50
2022-08-16T10:13:07.863Z,39.80
2022-08-16T10:15:36.475Z,38.50
2022-08-16T10:18:56.307Z,39.60
2022-08-16T10:21:02.441Z,40.30
2022-08-16T10:23:29.749Z,42.20
2022-08-16T10:27:16.891Z,43.90
2022-08-16T10:28:44.789Z,45.50
2022-08-16T10:31:16.778Z,43.40
2022-08-16T10:33:58.246Z,42.10
2022-08-16T10:36:37.792Z,44.10
2022-08-16T10:39:08.687Z,43.80
2022-08-16T10:41:36.501Z,42.50
2022-08-16T10:44:04.802Z,42.90
2022-08-16T10:46:41.760Z,42.30
2022-08-16T10:49:12.273Z,42.30
2022-08-16T10:52:02.409Z,39.90
2022-08-16T10:54:30.449Z,38.80
2022-08-16T10:57:04.463Z,40.30
2022-08-16T10:59:44.159Z,41.50
2022-08-16T11:02:59.694Z,39.00
2022-08-16T11:05:15.096Z,36.80
2022-08-16T11:07:53.334Z,35.40
2022-08-16T11:13:57.314Z,34.40
2022-08-16T11:19:06.364Z,33.70
2022-08-16T11:24:42.134Z,34.20
2022-08-16T11:27:21.193Z,35.40
2022-08-16T11:29:55.279Z,39.80
2022-08-16T11:32:31.024Z,40.50
2022-08-16T11:35:13.915Z,39.00
2022-08-16T11:38:46.479Z,36.00
2022-08-16T11:40:44.410Z,33.70
2022-08-16T11:43:17.127Z,31.80
2022-08-16T11:45:53.650Z,29.40
2022-08-16T11:48:24.741Z,28.70
2022-08-16T11:50:52.831Z,31.40
2022-08-16T11:53:21.881Z,32.80
2022-08-16T11:55:54.594Z,34.30
2022-08-16T11:58:26.009Z,36.00
2022-08-16T12:00:57.371Z,34.50
2022-08-16T12:03:34.277Z,34.30
2022-08-16T12:06:30.711Z,33.80
2022-08-16T12:09:02.158Z,32.30
2022-08-16T12:11:32.008Z,30.90
2022-08-16T12:14:04.582Z,30.20
2022-08-16T12:16:35.557Z,29.80
2022-08-16T12:19:10.353Z,29.30
2022-08-16T12:21:58.548Z,28.20
2022-08-16T12:24:28.328Z,27.70
2022-08-16T12:26:57.007Z,27.70
2022-08-16T12:29:25.789Z,28.30
2022-08-16T12:32:01.068Z,30.40
2022-08-16T12:34:50.930Z,30.60
2022-08-16T12:37:21.789Z,30.60
2022-08-16T12:39:56.028Z,30.10
2022-08-16T12:42:35.267Z,30.10
2022-08-16T12:45:19.065Z,30.60
2022-08-16T12:48:31.638Z,31.00
2022-08-16T12:50:54.593Z,30.70
2022-08-16T12:53:25.018Z,30.30
2022-08-16T12:56:00.662Z,30.00
2022-08-16T12:58:49.182Z,29.90
2022-08-16T13:01:22.701Z,29.80
2022-08-16T13:04:11.467Z,30.50
2022-08-16T13:06:44.223Z,31.30
2022-08-16T13:09:23.522Z,34.00
2022-08-16T13:12:07.291Z,35.30
2022-08-16T13:14:41.542Z,37.60
2022-08-16T13:17:19.570Z,39.40
2022-08-16T13:20:09.590Z,41.10
2022-08-16T13:22:46.441Z,41.60
2022-08-16T13:25:21.126Z,41.40
2022-08-16T13:28:02.639Z,41.60
2022-08-16T13:30:41.020Z,42.00
2022-08-16T13:33:18.969Z,42.40
2022-08-16T13:35:56.224Z,43.00
2022-08-16T13:38:53.558Z,42.70
2022-08-16T13:41:22.571Z,39.70
2022-08-16T13:43:59.256Z,37.60
2022-08-16T13:46:30.180Z,36.20
2022-08-16T13:48:58.262Z,35.50
2022-08-16T13:51:29.389Z,37.30
2022-08-16T13:54:03.894Z,38.30
2022-08-16T13:56:39.673Z,39.80
2022-08-16T13:59:13.900Z,40.90
2022-08-16T14:01:55.660Z,41.10
2022-08-16T14:04:29.000Z,40.40
2022-08-16T14:06:58.331Z,38.10
2022-08-16T14:09:28.175Z,36.20
2022-08-16T14:12:00.513Z,35.80
2022-08-16T14:14:29.835Z,35.70
2022-08-16T14:17:02.111Z,37.00
2022-08-16T14:19:30.104Z,37.70
2022-08-16T14:22:14.023Z,38.40
2022-08-16T14:24:46.632Z,39.40
2022-08-16T14:27:22.664Z,39.60
2022-08-16T14:29:52.118Z,39.70
2022-08-16T14:32:32.502Z,39.50
2022-08-16T14:35:07.373Z,39.70
2022-08-16T14:37:36.851Z,37.70
2022-08-16T14:40:06.065Z,36.70
2022-08-16T14:42:33.576Z,36.00
2022-08-16T14:45:05.941Z,35.10
2022-08-16T14:47:37.109Z,35.70
2022-08-16T14:50:13.337Z,36.40
2022-08-16T14:52:55.085Z,36.40
2022-08-16T14:55:26.132Z,37.00
2022-08-16T14:57:54.521Z,37.50
2022-08-16T15:00:27.156Z,37.90
2022-08-16T15:03:04.512Z,38.40
2022-08-16T15:05:32.651Z,38.70
2022-08-16T15:08:00.090Z,38.50
2022-08-16T15:10:29.572Z,37.70
2022-08-16T15:13:01.255Z,36.70
2022-08-16T15:15:30.222Z,36.20
2022-08-16T15:17:58.665Z,36.10
2022-08-16T15:20:32.712Z,36.40
2022-08-16T15:23:02.983Z,36.40
2022-08-16T15:25:41.194Z,36.40
2022-08-16T15:28:30.663Z,35.90
2022-08-16T15:31:03.251Z,35.60
2022-08-16T15:33:33.702Z,35.40
2022-08-16T15:36:02.628Z,35.00
2022-08-16T15:39:02.809Z,34.60
2022-08-16T15:41:38.120Z,34.00
2022-08-16T15:44:12.475Z,34.30
2022-08-16T15:46:54.554Z,34.20
2022-08-16T15:49:37.142Z,34.10
2022-08-16T15:52:14.995Z,34.00
2022-08-16T15:54:52.747Z,33.80
2022-08-16T15:57:24.177Z,33.80
2022-08-16T15:59:56.145Z,33.40
2022-08-16T16:02:39.042Z,33.30
2022-08-16T16:05:09.630Z,33.20
2022-08-16T16:07:45.133Z,33.60
2022-08-16T16:10:29.800Z,33.70
2022-08-16T16:13:00.474Z,33.70
2022-08-16T16:15:31.321Z,33.70
2022-08-16T16:18:05.407Z,33.60
2022-08-16T16:20:52.022Z,33.10
2022-08-16T16:23:24.677Z,33.00
2022-08-16T16:25:54.893Z,33.00
2022-08-16T16:29:06.673Z,32.80
2022-08-16T16:31:14.971Z,32.70
2022-08-16T16:33:45.067Z,32.60
2022-08-16T16:36:16.063Z,32.40
2022-08-16T16:38:47.394Z,32.10
2022-08-16T16:41:23.261Z,31.80
2022-08-16T16:43:53.735Z,31.50
2022-08-16T16:46:42.803Z,31.30
2022-08-16T16:49:14.531Z,30.80
2022-08-16T16:51:44.897Z,30.80
2022-08-16T16:54:22.450Z,30.70
2022-08-16T16:56:57.858Z,30.50
2022-08-16T16:59:28.042Z,30.60
2022-08-16T17:02:39.392Z,30.50
2022-08-16T17:04:48.501Z,30.40
2022-08-16T17:07:17.209Z,30.30
2022-08-16T17:09:46.809Z,30.20
2022-08-16T17:12:57.737Z,30.00
2022-08-16T17:15:36.411Z,29.90
2022-08-16T17:19:15.151Z,29.70
2022-08-16T17:21:05.935Z,29.50
2022-08-16T17:23:59.167Z,29.40
2022-08-16T17:26:21.789Z,29.40
2022-08-16T17:29:10.992Z,29.20
2022-08-16T17:31:40.983Z,29.00
2022-08-16T17:34:30.178Z,28.90
2022-08-16T17:37:00.715Z,28.90
2022-08-16T17:39:35.563Z,28.80
2022-08-16T17:42:25.341Z,28.80
2022-08-16T17:44:54.579Z,28.70
2022-08-16T17:47:26.642Z,28.60
2022-08-16T17:49:54.042Z,28.60
2022-08-16T17:52:21.383Z,28.60
2022-08-16T17:54:48.765Z,28.50
2022-08-16T17:57:16.952Z,28.30
2022-08-16T17:59:44.495Z,28.30
2022-08-16T18:02:42.359Z,28.30
2022-08-16T18:04:59.869Z,28.20
2022-08-16T18:07:27.408Z,28.00
2022-08-16T18:09:54.753Z,27.90
2022-08-16T18:12:44.274Z,27.70
2022-08-16T18:15:13.657Z,27.50
2022-08-16T18:17:41.903Z,27.40
2022-08-16T18:20:34.238Z,27.20
2022-08-16T18:23:07.407Z,27.00
2022-08-16T18:25:36.721Z,26.70
2022-08-16T18:28:04.657Z,26.60
2022-08-16T18:30:32.162Z,26.30
2022-08-16T18:32:59.807Z,26.10
2022-08-16T18:35:28.011Z,26.00
2022-08-16T18:37:56.448Z,25.70
2022-08-16T18:40:24.431Z,25.60
2022-08-16T18:43:13.328Z,25.40
2022-08-16T18:45:43.390Z,25.30
2022-08-16T18:48:12.468Z,25.20
2022-08-16T18:51:04.246Z,25.10
2022-08-16T18:53:31.124Z,25.00
2022-08-16T18:56:00.517Z,24.80
2022-08-16T18:58:30.811Z,24.70
2022-08-16T19:00:58.328Z,24.60
2022-08-16T19:03:32.430Z,24.60
2022-08-16T19:06:07.230Z,24.50
2022-08-16T19:08:39.395Z,24.40
2022-08-16T19:11:08.531Z,24.30
2022-08-16T19:13:37.194Z,24.20
2022-08-16T19:16:04.684Z,24.10
2022-08-16T19:18:36.553Z,24.10
2022-08-16T19:21:06.389Z,24.00
2022-08-16T19:23:37.048Z,23.80
2022-08-16T19:26:10.824Z,23.60
2022-08-16T19:28:50.143Z,23.60
2022-08-16T19:31:29.045Z,23.50
2022-08-16T19:33:57.222Z,23.40
2022-08-16T19:36:35.845Z,23.40
2022-08-16T19:39:13.748Z,23.30
2022-08-16T19:41:44.454Z,23.20
2022-08-16T19:44:12.000Z,23.20
2022-08-16T19:46:43.467Z,23.20
2022-08-16T19:49:16.191Z,23.10
2022-08-16T19:51:47.943Z,23.10
2022-08-16T19:54:16.169Z,23.10
2022-08-16T19:56:43.757Z,23.10
2022-08-16T19:59:21.100Z,23.00
2022-08-16T20:01:52.217Z,23.00
2022-08-16T20:04:22.009Z,22.90
2022-08-16T20:06:50.801Z,22.70
2022-08-16T20:09:21.934Z,22.60
2022-08-16T20:11:51.974Z,22.50
2022-08-16T20:14:25.806Z,22.40
2022-08-16T20:16:59.599Z,22.20
2022-08-16T20:19:28.747Z,22.10
2022-08-16T20:22:00.971Z,22.00
2022-08-16T20:24:34.548Z,22.00
2022-08-16T20:27:06.485Z,21.90
2022-08-16T20:29:34.574Z,21.80
2022-08-16T20:32:02.741Z,21.60
2022-08-16T20:34:30.890Z,21.50
2022-08-16T20:36:58.544Z,21.50
2022-08-16T20:39:26.368Z,21.50
2022-08-16T20:41:54.168Z,21.40
2022-08-16T20:44:22.884Z,21.30
2022-08-16T20:46:52.792Z,21.20
2022-08-16T20:49:20.933Z,21.10
2022-08-16T20:51:51.666Z,21.00
2022-08-16T20:54:19.950Z,20.90
2022-08-16T20:56:47.916Z,20.80
2022-08-16T20:59:15.995Z,20.60
2022-08-16T21:01:46.184Z,20.60
2022-08-16T21:04:25.267Z,20.50
2022-08-16T21:06:55.125Z,20.40
2022-08-16T21:09:24.335Z,20.40
2022-08-16T21:11:53.697Z,20.30
2022-08-16T21:14:21.358Z,20.30
2022-08-16T21:16:48.781Z,20.20
2022-08-16T21:19:16.290Z,20.10
2022-08-16T21:21:43.980Z,20.00
2022-08-16T21:24:13.155Z,19.90
2022-08-16T21:27:06.097Z,19.90
2022-08-16T21:29:40.006Z,19.70
2022-08-16T21:32:19.415Z,19.70
2022-08-16T21:35:08.451Z,19.60
2022-08-16T21:37:35.832Z,19.60
2022-08-16T21:40:04.246Z,19.50
2022-08-16T21:42:36.171Z,19.40
2022-08-16T21:45:04.467Z,19.30
2022-08-16T21:47:32.549Z,19.20
2022-08-16T21:49:59.911Z,19.10
2022-08-16T21:52:28.125Z,19.00
2022-08-16T21:55:22.492Z,19.00
2022-08-16T21:57:49.871Z,18.90
2022-08-16T22:00:19.243Z,18.80
2022-08-16T22:02:51.328Z,18.80
2022-08-16T22:05:18.962Z,18.80
2022-08-16T22:07:46.284Z,18.80
2022-08-16T22:11:04.923Z,18.70
2022-08-16T22:13:01.664Z,18.70
2022-08-16T22:15:29.000Z,18.60
2022-08-16T22:17:59.319Z,18.50
2022-08-16T22:20:28.797Z,18.50
2022-08-16T22:23:11.105Z,18.40
2022-08-16T22:25:41.690Z,18.40
2022-08-16T22:28:11.028Z,18.30
2022-08-16T22:30:38.663Z,18.30
2022-08-16T22:33:17.549Z,18.30
2022-08-16T22:35:48.345Z,18.30
2022-08-16T22:38:54.679Z,18.20
2022-08-16T22:41:04.665Z,18.10
2022-08-16T22:43:33.101Z,18.10
2022-08-16T22:46:00.669Z,18.00
2022-08-16T22:48:28.805Z,17.90
2022-08-16T22:50:56.369Z,17.80
2022-08-16T22:53:26.849Z,17.80
2022-08-16T22:55:54.315Z,17.70
2022-08-16T22:58:33.955Z,17.60
2022-08-16T23:01:09.753Z,17.60
2022-08-16T23:03:38.050Z,17.60
2022-08-16T23:06:06.525Z,17.60
2022-08-16T23:08:39.032Z,17.50
2022-08-16T23:11:14.102Z,17.50
2022-08-16T23:13:50.146Z,17.40
2022-08-16T23:16:33.616Z,17.40
2022-08-16T23:19:05.849Z,17.40
2022-08-16T23:21:34.820Z,17.40
2022-08-16T23:24:02.357Z,17.40
2022-08-16T23:26:45.208Z,17.30
2022-08-16T23:29:23.607Z,17.30
2022-08-16T23:31:55.958Z,17.20
2022-08-16T23:34:24.511Z,17.20
2022-08-16T23:36:52.026Z,17.10
2022-08-16T23:39:19.376Z,17.10
2022-08-16T23:41:46.722Z,17.10
2022-08-16T23:44:56.047Z,17.00
2022-08-16T23:47:02.035Z,17.00
2022-08-16T23:50:00.280Z,17.00
2022-08-16T23:52:38.408Z,17.00
2022-08-16T23:55:07.525Z,16.90
2022-08-16T23:57:35.123Z,16.90
